Terminal Aerodrome Forecast
Issued by NWS Mt. Holly, NJ

Home | Current Version | Previous Version | Text Only | Print | Product List | Glossary On
Versions: 1 2 3 4 5 6 7 8 9 10 11 12 13 14 15 16 17 18 19
000
FTUS41 KPHI 230139 AAA
TAFILG
TAF AMD
KILG 230139Z 2302/2324 28010KT P6SM SCT100
     FM230400 33008KT P6SM SKC
     FM231300 36005KT P6SM SKC
     FM231800 29008KT P6SM FEW250
     FM232300 25005KT P6SM SKC=

USA.gov is the U.S. government's official web portal to all federal, state and local government web resources and services.